createdAt,value
2022-10-13T00:01:12.450Z,8.50
2022-10-13T00:03:42.555Z,7.17
2022-10-13T00:06:10.876Z,9.00
2022-10-13T00:08:38.540Z,9.23
2022-10-13T00:11:19.110Z,7.43
2022-10-13T00:13:46.962Z,9.87
2022-10-13T00:16:16.088Z,11.17
2022-10-13T00:18:43.982Z,8.43
2022-10-13T00:21:14.112Z,9.37
2022-10-13T00:23:41.765Z,9.73
2022-10-13T00:26:11.437Z,10.23
2022-10-13T00:28:39.068Z,11.57
2022-10-13T00:31:17.613Z,10.60
2022-10-13T00:33:44.823Z,11.13
2022-10-13T00:36:11.841Z,10.13
2022-10-13T00:38:38.925Z,10.83
2022-10-13T00:41:05.877Z,8.07
2022-10-13T00:43:57.551Z,10.20
2022-10-13T00:46:28.042Z,8.17
2022-10-13T00:48:56.844Z,11.13
2022-10-13T00:51:28.720Z,9.07
2022-10-13T00:53:56.715Z,8.57
2022-10-13T00:56:26.615Z,10.27
2022-10-13T00:58:55.211Z,8.53
2022-10-13T01:01:22.411Z,8.83
2022-10-13T01:03:49.145Z,11.00
2022-10-13T01:06:19.803Z,9.43
2022-10-13T01:08:49.384Z,10.90
2022-10-13T01:11:40.597Z,9.03
2022-10-13T01:14:13.676Z,8.53
2022-10-13T01:16:47.521Z,8.90
2022-10-13T01:20:08.128Z,8.60
2022-10-13T01:22:53.952Z,8.67
2022-10-13T01:25:52.808Z,8.73
2022-10-13T01:28:19.569Z,11.10
2022-10-13T01:30:52.945Z,8.73
2022-10-13T01:33:30.427Z,9.13
2022-10-13T01:36:18.195Z,6.77
2022-10-13T01:39:05.808Z,9.23
2022-10-13T01:41:37.682Z,6.93
2022-10-13T01:44:32.567Z,10.63
2022-10-13T01:47:02.215Z,9.23
2022-10-13T01:49:34.658Z,9.27
2022-10-13T01:52:11.172Z,9.43
2022-10-13T01:54:38.094Z,10.67
2022-10-13T01:57:05.349Z,8.13
2022-10-13T01:59:36.454Z,10.70
2022-10-13T02:02:16.142Z,9.60
2022-10-13T02:04:50.805Z,12.50
2022-10-13T02:07:20.350Z,9.30
2022-10-13T02:10:11.667Z,8.07
2022-10-13T02:13:00.540Z,7.63
2022-10-13T02:15:59.821Z,9.50
2022-10-13T02:18:33.043Z,8.33
2022-10-13T02:21:00.959Z,8.73
2022-10-13T02:23:29.003Z,9.03
2022-10-13T02:25:59.198Z,7.90
2022-10-13T02:28:27.346Z,7.53
2022-10-13T02:30:54.466Z,9.23
2022-10-13T02:33:21.753Z,10.13
2022-10-13T02:35:48.777Z,8.03
2022-10-13T02:38:16.020Z,17.73
2022-10-13T02:40:42.874Z,8.87
2022-10-13T02:43:09.841Z,7.33
2022-10-13T02:45:36.588Z,11.10
2022-10-13T02:48:05.267Z,10.70
2022-10-13T02:50:32.135Z,12.13
2022-10-13T02:53:01.635Z,9.70
2022-10-13T02:55:28.666Z,11.43
2022-10-13T02:57:55.460Z,10.57
2022-10-13T03:00:24.984Z,13.40
2022-10-13T03:02:51.830Z,12.53
2022-10-13T03:05:18.650Z,18.30
2022-10-13T03:07:45.621Z,28.43
2022-10-13T03:10:12.999Z,24.17
2022-10-13T03:12:39.849Z,49.27
2022-10-13T03:15:09.535Z,69.63
2022-10-13T03:17:36.817Z,73.43
2022-10-13T03:20:06.880Z,85.03
2022-10-13T03:22:34.044Z,88.23
2022-10-13T03:25:00.974Z,75.30
2022-10-13T03:27:28.215Z,82.53
2022-10-13T03:29:55.029Z,75.83
2022-10-13T03:32:24.417Z,64.43
2022-10-13T03:34:52.217Z,69.00
2022-10-13T03:37:19.056Z,65.73
2022-10-13T03:39:48.403Z,65.93
2022-10-13T03:42:15.255Z,59.77
2022-10-13T03:44:42.057Z,54.33
2022-10-13T03:47:11.389Z,49.23
2022-10-13T03:49:39.127Z,49.73
2022-10-13T03:52:06.270Z,56.17
2022-10-13T03:54:33.410Z,58.33
2022-10-13T03:57:00.348Z,62.13
2022-10-13T03:59:36.375Z,68.73
2022-10-13T04:02:03.865Z,69.73
2022-10-13T04:04:30.691Z,61.13
2022-10-13T04:07:00.141Z,67.83
2022-10-13T04:09:27.501Z,65.80
2022-10-13T04:11:54.250Z,63.20
2022-10-13T04:14:21.185Z,72.30
2022-10-13T04:16:48.371Z,72.70
2022-10-13T04:19:15.905Z,70.03
2022-10-13T04:21:43.960Z,70.17
2022-10-13T04:24:13.531Z,62.63
2022-10-13T04:26:40.610Z,64.43
2022-10-13T04:29:09.499Z,61.40
2022-10-13T04:31:37.774Z,46.53
2022-10-13T04:34:04.880Z,40.83
2022-10-13T04:36:31.851Z,29.47
2022-10-13T04:38:58.649Z,31.60
2022-10-13T04:41:26.052Z,42.77
2022-10-13T04:43:53.878Z,32.93
2022-10-13T04:46:24.732Z,31.10
2022-10-13T04:48:52.624Z,24.47
2022-10-13T04:51:22.583Z,27.10
2022-10-13T04:53:53.958Z,26.33
2022-10-13T04:56:20.725Z,25.53
2022-10-13T04:58:47.599Z,29.57
2022-10-13T05:01:22.209Z,34.57
2022-10-13T05:03:59.300Z,30.27
2022-10-13T05:06:31.281Z,29.40
2022-10-13T05:08:58.300Z,34.30
2022-10-13T05:11:26.739Z,39.43
2022-10-13T05:13:54.399Z,34.03
2022-10-13T05:16:22.429Z,39.30
2022-10-13T05:18:51.265Z,35.37
2022-10-13T05:21:26.833Z,40.30
2022-10-13T05:23:55.945Z,63.17
2022-10-13T05:26:29.035Z,81.37
2022-10-13T05:29:00.150Z,93.40
2022-10-13T05:31:29.362Z,93.07
2022-10-13T05:33:57.341Z,95.90
2022-10-13T05:36:33.551Z,79.27
2022-10-13T05:39:21.425Z,86.13
2022-10-13T05:41:48.488Z,68.60
2022-10-13T05:44:17.579Z,69.57
2022-10-13T05:46:44.731Z,76.03
2022-10-13T05:49:12.022Z,63.40
2022-10-13T05:52:00.962Z,67.37
2022-10-13T05:54:39.238Z,65.47
2022-10-13T05:57:08.106Z,59.00
2022-10-13T05:59:42.116Z,54.97
2022-10-13T06:02:12.571Z,53.00
2022-10-13T06:04:45.635Z,48.47
2022-10-13T06:07:13.160Z,45.40
2022-10-13T06:09:40.840Z,41.23
2022-10-13T06:12:11.996Z,42.70
2022-10-13T06:14:38.813Z,47.37
2022-10-13T06:17:05.565Z,39.93
2022-10-13T06:19:32.728Z,42.90
2022-10-13T06:22:03.458Z,45.13
2022-10-13T06:24:30.658Z,38.03
2022-10-13T06:26:57.957Z,45.93
2022-10-13T06:29:27.700Z,41.77
2022-10-13T06:31:54.752Z,39.50
2022-10-13T06:34:21.536Z,36.10
2022-10-13T06:36:48.548Z,43.20
2022-10-13T06:39:15.298Z,36.63
2022-10-13T06:41:42.031Z,40.10
2022-10-13T06:44:09.105Z,35.57
2022-10-13T06:46:35.816Z,40.63
2022-10-13T06:49:03.028Z,33.40
2022-10-13T06:51:31.999Z,32.63
2022-10-13T06:53:59.195Z,37.80
2022-10-13T06:56:28.671Z,34.80
2022-10-13T06:58:55.441Z,39.00
2022-10-13T07:01:22.260Z,33.53
2022-10-13T07:03:50.442Z,33.10
2022-10-13T07:06:18.129Z,38.83
2022-10-13T07:08:44.996Z,38.97
2022-10-13T07:11:16.362Z,36.60
2022-10-13T07:13:46.586Z,35.40
2022-10-13T07:16:14.510Z,38.37
2022-10-13T07:18:41.414Z,38.33
2022-10-13T07:21:10.865Z,35.00
2022-10-13T07:23:37.855Z,36.27
2022-10-13T07:26:10.185Z,31.67
2022-10-13T07:28:37.426Z,30.53
2022-10-13T07:31:17.940Z,30.80
2022-10-13T07:33:47.252Z,31.30
2022-10-13T07:36:14.299Z,32.53
2022-10-13T07:38:41.558Z,36.07
2022-10-13T07:41:11.161Z,32.03
2022-10-13T07:43:38.102Z,33.10
2022-10-13T07:46:06.842Z,34.90
2022-10-13T07:48:34.710Z,29.90
2022-10-13T07:51:12.243Z,35.67
2022-10-13T07:53:40.289Z,35.67
2022-10-13T07:56:11.058Z,38.80
2022-10-13T07:58:44.059Z,33.53
2022-10-13T08:01:15.447Z,32.50
2022-10-13T08:03:45.553Z,35.13
2022-10-13T08:06:17.572Z,34.43
2022-10-13T08:08:44.500Z,38.00
2022-10-13T08:11:17.363Z,36.90
2022-10-13T08:13:48.842Z,37.67
2022-10-13T08:16:15.659Z,34.80
2022-10-13T08:18:42.424Z,36.20
2022-10-13T08:21:53.329Z,34.70
2022-10-13T08:24:00.323Z,37.27
2022-10-13T08:26:28.995Z,35.73
2022-10-13T08:29:20.291Z,39.30
2022-10-13T08:31:43.565Z,35.67
2022-10-13T08:34:12.386Z,35.13
2022-10-13T08:36:39.942Z,37.63
2022-10-13T08:39:07.429Z,36.90
2022-10-13T08:41:39.439Z,35.47
2022-10-13T08:47:42.016Z,37.50
2022-10-13T08:50:19.464Z,40.23
2022-10-13T08:52:54.967Z,39.43
2022-10-13T08:56:00.093Z,39.43
2022-10-13T08:58:32.480Z,38.23
2022-10-13T09:01:02.564Z,42.37
2022-10-13T09:03:30.383Z,43.50
2022-10-13T09:06:11.770Z,44.10
2022-10-13T09:08:50.925Z,43.73
2022-10-13T09:11:17.906Z,45.80
2022-10-13T09:13:44.745Z,41.53
2022-10-13T09:16:13.214Z,47.30
2022-10-13T09:18:40.869Z,46.83
2022-10-13T09:21:26.580Z,45.63
2022-10-13T09:24:05.640Z,48.37
2022-10-13T09:26:38.305Z,46.27
2022-10-13T09:29:20.465Z,48.37
2022-10-13T09:31:49.971Z,43.40
2022-10-13T09:34:25.244Z,44.10
2022-10-13T09:36:56.095Z,45.73
2022-10-13T09:39:22.958Z,50.27
2022-10-13T09:41:50.076Z,43.37
2022-10-13T09:44:31.990Z,42.90
2022-10-13T09:47:02.144Z,43.17
2022-10-13T09:49:35.243Z,41.07
2022-10-13T09:52:28.692Z,41.63
2022-10-13T09:55:01.060Z,47.07
2022-10-13T09:57:47.296Z,40.77
2022-10-13T10:00:37.442Z,40.87
2022-10-13T10:03:19.799Z,42.70
2022-10-13T10:06:14.461Z,44.33
2022-10-13T10:09:04.141Z,43.53
2022-10-13T10:11:53.857Z,43.33
2022-10-13T10:14:36.518Z,40.63
2022-10-13T10:17:40.161Z,44.10
2022-10-13T10:20:33.234Z,40.23
2022-10-13T10:23:09.143Z,44.43
2022-10-13T10:25:51.270Z,41.20
2022-10-13T10:28:44.458Z,37.23
2022-10-13T10:31:38.470Z,40.13
2022-10-13T10:34:22.626Z,37.43
2022-10-13T10:37:15.165Z,43.20
2022-10-13T10:40:00.044Z,40.07
2022-10-13T10:42:51.131Z,35.00
2022-10-13T10:45:30.061Z,38.57
2022-10-13T10:48:05.404Z,37.80
2022-10-13T10:50:33.785Z,34.53
2022-10-13T10:53:09.499Z,33.53
2022-10-13T10:55:51.949Z,31.53
2022-10-13T10:58:29.387Z,30.97
2022-10-13T11:01:12.467Z,30.97
2022-10-13T11:03:47.753Z,30.33
2022-10-13T11:06:17.860Z,30.07
2022-10-13T11:08:47.257Z,29.53
2022-10-13T11:11:26.750Z,29.17
2022-10-13T11:13:59.609Z,27.53
2022-10-13T11:16:39.207Z,27.20
2022-10-13T11:19:36.003Z,28.93
2022-10-13T11:22:02.969Z,28.00
2022-10-13T11:24:41.865Z,25.67
2022-10-13T11:27:09.427Z,23.60
2022-10-13T11:29:57.973Z,26.87
2022-10-13T11:32:43.367Z,24.17
2022-10-13T11:35:23.870Z,23.50
2022-10-13T11:38:17.752Z,27.97
2022-10-13T11:41:12.560Z,24.33
2022-10-13T11:43:51.324Z,25.07
2022-10-13T11:46:49.317Z,23.13
2022-10-13T11:49:40.622Z,26.73
2022-10-13T11:52:29.199Z,24.30
2022-10-13T11:55:06.758Z,27.60
2022-10-13T11:57:33.682Z,20.53
2022-10-13T12:00:02.606Z,22.07
2022-10-13T12:02:30.005Z,23.87
2022-10-13T12:05:04.150Z,25.23
2022-10-13T12:07:37.361Z,21.17
2022-10-13T12:10:08.518Z,23.50
2022-10-13T12:12:35.500Z,25.47
2022-10-13T12:15:06.017Z,27.37
2022-10-13T12:17:39.228Z,22.43
2022-10-13T12:20:21.779Z,25.47
2022-10-13T12:22:49.799Z,24.00
2022-10-13T12:25:19.162Z,22.73
2022-10-13T12:27:52.679Z,21.43
2022-10-13T12:30:26.056Z,21.20
2022-10-13T12:32:55.168Z,18.97
2022-10-13T12:35:30.235Z,25.40
2022-10-13T12:38:00.589Z,20.97
2022-10-13T12:40:28.709Z,16.63
2022-10-13T12:42:56.213Z,21.00
2022-10-13T12:45:28.810Z,17.33
2022-10-13T12:47:55.943Z,22.33
2022-10-13T12:50:27.413Z,19.33
2022-10-13T12:53:09.130Z,19.80
2022-10-13T12:56:01.323Z,22.07
2022-10-13T12:58:32.964Z,19.20
2022-10-13T13:01:11.831Z,18.13
2022-10-13T13:03:40.970Z,19.53
2022-10-13T13:06:13.971Z,22.50
2022-10-13T13:08:43.674Z,17.97
2022-10-13T13:11:33.038Z,18.07
2022-10-13T13:14:24.208Z,19.40
2022-10-13T13:17:27.636Z,18.57
2022-10-13T13:20:29.861Z,17.10
2022-10-13T13:22:57.160Z,15.00
2022-10-13T13:25:25.133Z,19.67
2022-10-13T13:27:53.141Z,19.43
2022-10-13T13:30:22.572Z,16.33
2022-10-13T13:32:49.963Z,17.47
2022-10-13T13:35:17.839Z,16.67
2022-10-13T13:37:51.327Z,18.70
2022-10-13T13:40:26.196Z,14.57
2022-10-13T13:42:54.196Z,19.70
2022-10-13T13:45:25.343Z,19.77
2022-10-13T13:47:52.164Z,17.83
2022-10-13T13:50:42.685Z,14.90
2022-10-13T13:53:09.625Z,16.43
2022-10-13T13:55:36.858Z,16.73
2022-10-13T13:58:03.849Z,15.77
2022-10-13T14:00:30.608Z,18.27
2022-10-13T14:02:58.537Z,15.87
2022-10-13T14:05:25.359Z,17.13
2022-10-13T14:07:58.114Z,18.67
2022-10-13T14:10:25.992Z,16.70
2022-10-13T14:12:53.050Z,13.27
2022-10-13T14:15:19.949Z,17.83
2022-10-13T14:17:46.655Z,15.97
2022-10-13T14:20:13.902Z,17.37
2022-10-13T14:22:42.835Z,18.40
2022-10-13T14:25:10.399Z,17.20
2022-10-13T14:27:37.833Z,14.70
2022-10-13T14:30:06.650Z,15.40
2022-10-13T14:32:34.237Z,17.20
2022-10-13T14:35:01.412Z,17.77
2022-10-13T14:37:33.073Z,15.23
2022-10-13T14:40:00.549Z,14.80
2022-10-13T14:42:27.443Z,20.20
2022-10-13T14:44:55.315Z,14.70
2022-10-13T14:47:22.440Z,17.33
2022-10-13T14:49:49.539Z,19.57
2022-10-13T14:52:16.314Z,21.93
2022-10-13T14:54:45.065Z,17.27
2022-10-13T14:57:16.496Z,14.87
2022-10-13T14:59:43.437Z,18.50
2022-10-13T15:02:18.286Z,15.23
2022-10-13T15:04:45.300Z,17.13
2022-10-13T15:07:12.067Z,16.80
2022-10-13T15:09:52.400Z,17.47
2022-10-13T15:12:21.321Z,19.57
2022-10-13T15:14:48.211Z,16.63
2022-10-13T15:17:14.983Z,21.40
2022-10-13T15:19:43.061Z,16.63
2022-10-13T15:22:09.797Z,29.47
2022-10-13T15:24:36.679Z,17.03
2022-10-13T15:27:03.570Z,19.97
2022-10-13T15:29:30.335Z,18.97
2022-10-13T15:32:12.502Z,18.20
2022-10-13T15:34:40.378Z,25.40
2022-10-13T15:37:08.003Z,20.60
2022-10-13T15:39:34.856Z,19.27
2022-10-13T15:42:02.218Z,16.70
2022-10-13T15:44:30.866Z,21.20
2022-10-13T15:47:07.815Z,21.07
2022-10-13T15:49:39.941Z,19.13
2022-10-13T15:52:06.883Z,16.80
2022-10-13T15:54:36.149Z,15.17
2022-10-13T15:57:03.253Z,21.10
2022-10-13T15:59:30.407Z,20.30
2022-10-13T16:01:57.125Z,18.87
2022-10-13T16:04:23.950Z,16.03
2022-10-13T16:06:50.936Z,18.00
2022-10-13T16:09:17.650Z,21.00
2022-10-13T16:11:44.434Z,20.37
2022-10-13T16:14:11.423Z,23.90
2022-10-13T16:16:38.153Z,18.80
2022-10-13T16:19:05.181Z,27.23
2022-10-13T16:21:32.119Z,23.77
2022-10-13T16:23:59.387Z,23.30
2022-10-13T16:26:26.391Z,22.17
2022-10-13T16:28:56.870Z,27.77
2022-10-13T16:31:23.995Z,20.53
2022-10-13T16:33:50.738Z,28.77
2022-10-13T16:36:19.309Z,24.60
2022-10-13T16:38:47.698Z,26.37
2022-10-13T16:41:18.273Z,28.33
2022-10-13T16:43:46.425Z,41.23
2022-10-13T16:46:15.112Z,27.23
2022-10-13T16:48:43.511Z,26.20
2022-10-13T16:51:13.800Z,25.47
2022-10-13T16:53:42.314Z,32.43
2022-10-13T16:56:09.672Z,23.30
2022-10-13T16:58:36.636Z,27.70
2022-10-13T17:01:15.300Z,41.47
2022-10-13T17:03:44.168Z,26.10
2022-10-13T17:06:12.045Z,40.70
2022-10-13T17:08:39.100Z,36.97
2022-10-13T17:11:06.356Z,23.63
2022-10-13T17:13:35.092Z,23.47
2022-10-13T17:16:01.779Z,23.60
2022-10-13T17:18:28.805Z,23.37
2022-10-13T17:20:58.486Z,26.87
2022-10-13T17:23:28.475Z,22.23
2022-10-13T17:25:56.279Z,18.77
2022-10-13T17:28:23.959Z,19.17
2022-10-13T17:31:09.876Z,20.77
2022-10-13T17:33:38.533Z,23.13
2022-10-13T17:36:28.443Z,23.13
2022-10-13T17:38:56.840Z,23.37
2022-10-13T17:41:24.013Z,25.43
2022-10-13T17:43:52.327Z,23.40
2022-10-13T17:46:40.579Z,23.57
2022-10-13T17:49:11.397Z,30.33
2022-10-13T17:51:42.690Z,24.17
2022-10-13T17:54:15.537Z,21.43
2022-10-13T17:56:44.174Z,21.27
2022-10-13T17:59:11.083Z,23.23
2022-10-13T18:01:39.337Z,25.47
2022-10-13T18:04:11.699Z,25.33
2022-10-13T18:06:40.715Z,25.37
2022-10-13T18:09:19.235Z,25.57
2022-10-13T18:11:50.584Z,27.43
2022-10-13T18:14:38.352Z,28.50
2022-10-13T18:17:05.344Z,26.00
2022-10-13T18:19:35.403Z,27.67
2022-10-13T18:22:07.343Z,29.57
2022-10-13T18:24:35.381Z,26.20
2022-10-13T18:27:02.386Z,29.17
2022-10-13T18:29:29.488Z,27.93
2022-10-13T18:31:56.591Z,28.20
2022-10-13T18:34:23.763Z,28.50
2022-10-13T18:36:55.133Z,28.40
2022-10-13T18:39:29.190Z,25.27
2022-10-13T18:41:57.040Z,27.33
2022-10-13T18:44:25.014Z,29.93
2022-10-13T18:46:53.786Z,28.37
2022-10-13T18:49:23.202Z,30.43
2022-10-13T18:51:51.519Z,32.17
2022-10-13T18:54:18.627Z,27.47
2022-10-13T18:56:45.396Z,29.03
2022-10-13T18:59:12.594Z,29.30
2022-10-13T19:01:40.992Z,30.70
2022-10-13T19:04:08.656Z,27.00
2022-10-13T19:06:35.799Z,29.90
2022-10-13T19:09:08.686Z,29.90
2022-10-13T19:11:36.352Z,30.77
2022-10-13T19:14:04.096Z,30.33
2022-10-13T19:16:36.120Z,28.40
2022-10-13T19:19:03.215Z,29.13
2022-10-13T19:21:30.286Z,27.53
2022-10-13T19:23:59.726Z,28.50
2022-10-13T19:26:30.889Z,27.23
2022-10-13T19:29:03.785Z,27.67
2022-10-13T19:31:32.465Z,30.30
2022-10-13T19:34:00.435Z,27.93
2022-10-13T19:36:34.222Z,25.50
2022-10-13T19:39:04.900Z,26.73
2022-10-13T19:41:32.412Z,26.23
2022-10-13T19:44:00.079Z,26.33
2022-10-13T19:46:26.790Z,27.80
2022-10-13T19:48:54.466Z,24.50
2022-10-13T19:51:21.349Z,22.63
2022-10-13T19:53:48.541Z,25.97
2022-10-13T19:56:24.404Z,33.87
2022-10-13T19:58:51.984Z,33.83
2022-10-13T20:01:19.921Z,29.60
2022-10-13T20:03:47.603Z,28.33
2022-10-13T20:06:14.905Z,26.57
2022-10-13T20:08:41.742Z,28.90
2022-10-13T20:11:10.946Z,28.40
2022-10-13T20:13:38.021Z,25.20
2022-10-13T20:16:13.834Z,23.50
2022-10-13T20:18:41.511Z,27.33
2022-10-13T20:21:20.256Z,27.90
2022-10-13T20:23:48.598Z,26.10
2022-10-13T20:26:15.645Z,24.33
2022-10-13T20:28:46.834Z,30.53
2022-10-13T20:31:15.508Z,25.60
2022-10-13T20:33:42.854Z,26.63
2022-10-13T20:36:16.482Z,29.60
2022-10-13T20:38:43.285Z,25.67
2022-10-13T20:41:17.774Z,25.47
2022-10-13T20:43:47.488Z,21.03
2022-10-13T20:46:16.271Z,21.63
2022-10-13T20:49:09.212Z,27.10
2022-10-13T20:51:32.039Z,24.23
2022-10-13T20:53:58.779Z,24.20
2022-10-13T20:56:26.690Z,22.80
2022-10-13T20:58:54.148Z,27.03
2022-10-13T21:01:22.461Z,26.60
2022-10-13T21:03:54.349Z,27.27
2022-10-13T21:06:22.849Z,28.87
2022-10-13T21:08:49.789Z,31.20
2022-10-13T21:11:18.554Z,25.63
2022-10-13T21:13:46.162Z,24.37
2022-10-13T21:16:36.771Z,28.60
2022-10-13T21:19:04.303Z,24.70
2022-10-13T21:21:34.717Z,31.93
2022-10-13T21:24:04.856Z,24.57
2022-10-13T21:26:33.268Z,25.27
2022-10-13T21:29:02.628Z,25.83
2022-10-13T21:31:29.839Z,27.17
2022-10-13T21:33:56.933Z,27.50
2022-10-13T21:36:26.821Z,21.90
2022-10-13T21:39:00.601Z,25.03
2022-10-13T21:41:28.421Z,23.63
2022-10-13T21:43:55.698Z,25.70
2022-10-13T21:46:25.834Z,23.23
2022-10-13T21:48:58.126Z,18.90
2022-10-13T21:51:27.352Z,21.13
2022-10-13T21:53:56.535Z,24.07
2022-10-13T21:56:25.573Z,22.47
2022-10-13T21:58:52.974Z,18.47
2022-10-13T22:01:20.774Z,20.77
2022-10-13T22:03:48.959Z,20.70
2022-10-13T22:06:19.347Z,24.03
2022-10-13T22:08:49.278Z,25.97
2022-10-13T22:11:17.075Z,19.03
2022-10-13T22:13:43.878Z,23.03
2022-10-13T22:16:14.683Z,22.77
2022-10-13T22:18:42.651Z,23.47
2022-10-13T22:21:17.247Z,26.00
2022-10-13T22:23:44.775Z,22.87
2022-10-13T22:26:12.083Z,24.73
2022-10-13T22:28:40.153Z,27.93
2022-10-13T22:31:09.432Z,24.97
2022-10-13T22:33:38.510Z,23.87
2022-10-13T22:36:19.582Z,23.57
2022-10-13T22:38:48.295Z,26.30
2022-10-13T22:41:17.653Z,27.67
2022-10-13T22:43:45.161Z,24.03
2022-10-13T22:46:13.629Z,25.03
2022-10-13T22:48:41.687Z,25.77
2022-10-13T22:51:10.306Z,23.63
2022-10-13T22:53:41.206Z,26.73
2022-10-13T22:56:11.734Z,29.23
2022-10-13T22:58:41.040Z,25.83
2022-10-13T23:01:13.450Z,28.57
2022-10-13T23:03:41.508Z,30.40
2022-10-13T23:06:13.695Z,28.70
2022-10-13T23:08:40.614Z,31.37
2022-10-13T23:11:08.146Z,30.60
2022-10-13T23:13:35.410Z,25.77
2022-10-13T23:16:14.552Z,35.80
2022-10-13T23:18:41.295Z,30.10
2022-10-13T23:21:18.178Z,27.83
2022-10-13T23:23:45.092Z,29.93
2022-10-13T23:26:17.784Z,29.17
2022-10-13T23:28:44.792Z,31.03
2022-10-13T23:31:15.696Z,31.37
2022-10-13T23:33:43.330Z,33.93
2022-10-13T23:36:16.747Z,30.80
2022-10-13T23:38:43.788Z,31.50
2022-10-13T23:41:13.366Z,40.00
2022-10-13T23:43:40.959Z,38.40
2022-10-13T23:46:08.404Z,41.13
2022-10-13T23:48:35.046Z,36.77
2022-10-13T23:51:07.128Z,32.93
2022-10-13T23:53:35.575Z,37.70
2022-10-13T23:56:06.654Z,32.27
2022-10-13T23:58:38.416Z,30.77
